createdAt,value
2022-11-29T00:01:40.902Z,9.10
2022-11-29T00:03:42.408Z,9.27
2022-11-29T00:05:43.780Z,9.85
2022-11-29T00:07:45.469Z,8.77
2022-11-29T00:09:46.906Z,9.15
2022-11-29T00:12:06.890Z,9.40
2022-11-29T00:14:10.904Z,9.32
2022-11-29T00:16:12.511Z,8.82
2022-11-29T00:18:13.969Z,9.07
2022-11-29T00:20:15.480Z,9.48
2022-11-29T00:22:16.975Z,9.02
2022-11-29T00:24:18.631Z,8.80
2022-11-29T00:26:20.231Z,8.65
2022-11-29T00:28:21.654Z,8.98
2022-11-29T00:30:23.141Z,9.43
2022-11-29T00:32:24.655Z,9.52
2022-11-29T00:34:26.224Z,9.10
2022-11-29T00:36:28.140Z,9.30
2022-11-29T00:38:29.584Z,8.73
2022-11-29T00:40:30.956Z,8.80
2022-11-29T00:42:32.320Z,8.95
2022-11-29T00:44:33.720Z,8.60
2022-11-29T00:46:35.091Z,9.63
2022-11-29T00:48:37.340Z,9.82
2022-11-29T00:50:38.739Z,9.55
2022-11-29T00:52:40.110Z,9.35
2022-11-29T00:54:41.849Z,9.35
2022-11-29T00:56:43.789Z,8.75
2022-11-29T00:58:45.205Z,8.80
2022-11-29T01:00:47.671Z,9.07
2022-11-29T01:02:49.188Z,9.30
2022-11-29T01:04:50.609Z,10.13
2022-11-29T01:06:52.960Z,9.50
2022-11-29T01:08:54.343Z,8.80
2022-11-29T01:11:10.536Z,9.27
2022-11-29T01:13:11.920Z,8.48
2022-11-29T01:15:13.327Z,8.65
2022-11-29T01:17:14.729Z,8.98
2022-11-29T01:19:16.169Z,8.73
2022-11-29T01:21:20.855Z,8.70
2022-11-29T01:23:22.237Z,8.40
2022-11-29T01:25:23.646Z,9.00
2022-11-29T01:27:25.147Z,8.90
2022-11-29T01:29:26.525Z,9.07
2022-11-29T01:31:31.466Z,9.60
2022-11-29T01:33:33.616Z,8.93
2022-11-29T01:35:34.970Z,9.88
2022-11-29T01:37:36.409Z,8.60
2022-11-29T01:39:37.861Z,9.57
2022-11-29T01:41:39.468Z,9.77
2022-11-29T01:44:04.742Z,9.93
2022-11-29T01:46:06.117Z,9.68
2022-11-29T01:48:07.661Z,9.25
2022-11-29T01:50:09.873Z,9.70
2022-11-29T01:52:16.771Z,8.68
2022-11-29T01:56:20.399Z,8.98
2022-11-29T01:58:22.407Z,9.02
2022-11-29T02:00:23.793Z,9.15
2022-11-29T02:02:33.337Z,9.55
2022-11-29T02:04:36.990Z,9.88
2022-11-29T02:06:39.508Z,9.05
2022-11-29T02:08:43.920Z,8.82
2022-11-29T02:11:04.080Z,9.75
2022-11-29T02:13:26.898Z,8.25
2022-11-29T02:15:41.101Z,9.00
2022-11-29T02:18:10.392Z,8.57
2022-11-29T02:20:56.345Z,8.90
2022-11-29T02:23:14.717Z,9.57
2022-11-29T02:25:42.125Z,9.02
2022-11-29T02:28:15.484Z,8.63
2022-11-29T02:30:23.998Z,9.80
2022-11-29T02:32:52.884Z,9.43
2022-11-29T02:35:24.196Z,9.95
2022-11-29T02:37:56.316Z,9.70
2022-11-29T02:40:35.729Z,7.22
2022-11-29T02:42:58.261Z,8.45
2022-11-29T02:45:21.643Z,7.63
2022-11-29T02:47:43.956Z,8.88
2022-11-29T02:50:12.500Z,7.35
2022-11-29T02:52:30.842Z,9.07
2022-11-29T02:54:37.079Z,8.93
2022-11-29T02:56:53.829Z,8.98
2022-11-29T02:59:25.959Z,8.35
2022-11-29T03:01:40.216Z,9.23
2022-11-29T03:03:56.309Z,9.40
2022-11-29T03:06:04.867Z,9.52
2022-11-29T03:08:12.397Z,7.45
2022-11-29T03:10:39.139Z,8.32
2022-11-29T03:12:45.264Z,8.02
2022-11-29T03:15:05.204Z,7.82
2022-11-29T03:17:43.769Z,8.68
2022-11-29T03:20:07.808Z,7.35
2022-11-29T03:22:11.961Z,8.18
2022-11-29T03:24:23.994Z,7.65
2022-11-29T03:26:54.980Z,7.50
2022-11-29T03:29:09.334Z,8.70
2022-11-29T03:31:18.998Z,7.13
2022-11-29T03:33:30.981Z,7.60
2022-11-29T03:35:41.650Z,7.47
2022-11-29T03:37:55.303Z,7.65
2022-11-29T03:40:03.157Z,7.85
2022-11-29T03:42:11.065Z,8.30
2022-11-29T03:44:20.080Z,8.55
2022-11-29T03:46:33.573Z,9.30
2022-11-29T03:48:44.940Z,7.97
2022-11-29T03:50:54.120Z,8.52
2022-11-29T03:53:01.795Z,7.93
2022-11-29T03:55:09.311Z,9.00
2022-11-29T03:57:16.053Z,9.25
2022-11-29T03:59:36.008Z,8.75
2022-11-29T04:02:04.649Z,10.70
2022-11-29T04:04:35.755Z,9.57
2022-11-29T04:06:52.150Z,9.15
2022-11-29T04:09:31.180Z,9.55
2022-11-29T04:11:54.616Z,9.65
2022-11-29T04:14:17.599Z,10.32
2022-11-29T04:16:46.712Z,9.30
2022-11-29T04:19:15.900Z,9.93
2022-11-29T04:21:24.190Z,9.25
2022-11-29T04:24:13.518Z,10.15
2022-11-29T04:26:20.699Z,8.65
2022-11-29T04:28:40.381Z,8.70
2022-11-29T04:30:57.410Z,8.85
2022-11-29T04:33:39.587Z,9.18
2022-11-29T04:36:03.405Z,8.95
2022-11-29T04:38:41.205Z,7.70
2022-11-29T04:40:57.619Z,7.47
2022-11-29T04:43:10.950Z,7.82
2022-11-29T04:45:30.866Z,8.38
2022-11-29T04:47:52.751Z,7.75
2022-11-29T04:50:09.275Z,8.45
2022-11-29T04:52:32.219Z,8.05
2022-11-29T04:54:47.948Z,7.90
2022-11-29T04:56:54.939Z,9.20
2022-11-29T04:59:07.616Z,8.55
2022-11-29T05:01:39.912Z,8.07
2022-11-29T05:03:59.799Z,7.32
2022-11-29T05:06:23.166Z,7.82
2022-11-29T05:08:41.050Z,8.05
2022-11-29T05:11:01.151Z,7.47
2022-11-29T05:13:36.507Z,6.88
2022-11-29T05:15:59.123Z,8.85
2022-11-29T05:18:19.710Z,8.00
2022-11-29T05:21:02.963Z,9.18
2022-11-29T05:23:34.802Z,8.30
2022-11-29T05:25:55.238Z,8.80
2022-11-29T05:28:14.733Z,9.48
2022-11-29T05:32:57.801Z,9.80
2022-11-29T05:35:17.170Z,9.30
2022-11-29T05:37:39.746Z,10.15
2022-11-29T05:40:07.512Z,11.52
2022-11-29T05:42:29.293Z,13.68
2022-11-29T05:44:39.592Z,12.20
2022-11-29T05:46:50.557Z,12.95
2022-11-29T05:49:04.664Z,14.20
2022-11-29T05:51:23.072Z,14.55
2022-11-29T05:53:30.744Z,13.27
2022-11-29T05:55:45.404Z,13.77
2022-11-29T05:57:55.569Z,14.23
2022-11-29T05:59:58.994Z,13.40
2022-11-29T06:02:06.256Z,14.07
2022-11-29T06:04:52.158Z,14.40
2022-11-29T06:07:16.093Z,12.52
2022-11-29T06:09:48.167Z,13.45
2022-11-29T06:11:55.115Z,13.45
2022-11-29T06:16:27.081Z,14.52
2022-11-29T06:18:39.280Z,14.23
2022-11-29T06:20:51.931Z,15.27
2022-11-29T06:23:19.089Z,16.13
2022-11-29T06:25:53.223Z,18.58
2022-11-29T06:28:13.739Z,16.27
2022-11-29T06:30:20.169Z,16.73
2022-11-29T06:32:30.793Z,15.55
2022-11-29T06:35:02.350Z,15.85
2022-11-29T06:37:20.944Z,15.80
2022-11-29T06:39:22.816Z,14.25
2022-11-29T06:41:24.733Z,14.65
2022-11-29T06:43:26.568Z,15.35
2022-11-29T06:45:28.229Z,14.85
2022-11-29T06:48:03.520Z,15.38
2022-11-29T06:50:31.004Z,13.32
2022-11-29T06:52:58.334Z,13.60
2022-11-29T06:55:41.512Z,12.90
2022-11-29T06:57:57.647Z,12.95
2022-11-29T07:00:27.738Z,12.68
2022-11-29T07:02:39.649Z,13.60
2022-11-29T07:04:59.855Z,12.48
2022-11-29T07:07:01.319Z,13.45
2022-11-29T07:09:15.793Z,13.30
2022-11-29T07:11:17.410Z,13.85
2022-11-29T07:13:20.051Z,12.90
2022-11-29T07:15:23.059Z,13.32
2022-11-29T07:17:36.336Z,13.23
2022-11-29T07:22:30.593Z,12.65
2022-11-29T07:24:49.902Z,13.05
2022-11-29T07:27:14.631Z,12.43
2022-11-29T07:29:29.345Z,13.35
2022-11-29T07:32:00.110Z,11.80
2022-11-29T07:34:14.862Z,13.18
2022-11-29T07:36:40.886Z,11.75
2022-11-29T07:38:51.446Z,13.55
2022-11-29T07:41:04.220Z,12.18
2022-11-29T07:43:21.649Z,12.50
2022-11-29T07:45:29.188Z,11.98
2022-11-29T07:47:35.454Z,11.45
2022-11-29T07:49:37.450Z,11.77
2022-11-29T07:51:38.875Z,12.15
2022-11-29T07:53:43.020Z,10.93
2022-11-29T07:55:45.491Z,12.10
2022-11-29T07:57:47.730Z,12.55
2022-11-29T07:59:49.135Z,12.50
2022-11-29T08:01:50.563Z,12.23
2022-11-29T08:03:52.022Z,13.20
2022-11-29T08:05:53.419Z,12.75
2022-11-29T08:07:55.875Z,13.75
2022-11-29T08:09:57.288Z,11.77
2022-11-29T08:11:58.698Z,12.55
2022-11-29T08:14:01.983Z,11.45
2022-11-29T08:16:03.658Z,13.10
2022-11-29T08:18:05.067Z,10.88
2022-11-29T08:20:08.137Z,12.27
2022-11-29T08:22:09.533Z,12.02
2022-11-29T08:24:10.935Z,12.00
2022-11-29T08:26:12.634Z,10.52
2022-11-29T08:28:14.234Z,11.10
2022-11-29T08:30:18.651Z,10.98
2022-11-29T08:32:20.100Z,11.30
2022-11-29T08:34:23.173Z,10.77
2022-11-29T08:36:24.600Z,11.38
2022-11-29T08:38:25.966Z,10.93
2022-11-29T08:40:27.520Z,11.77
2022-11-29T08:42:28.923Z,11.15
2022-11-29T08:44:30.285Z,11.68
2022-11-29T08:46:50.334Z,11.05
2022-11-29T08:48:51.738Z,10.98
2022-11-29T08:50:55.308Z,10.35
2022-11-29T08:53:16.825Z,10.43
2022-11-29T08:55:20.045Z,10.13
2022-11-29T08:59:44.817Z,10.77
2022-11-29T09:01:46.209Z,10.35
2022-11-29T09:03:59.394Z,11.43
2022-11-29T09:06:12.457Z,11.63
2022-11-29T09:10:15.562Z,11.00
2022-11-29T09:12:17.218Z,10.35
2022-11-29T09:14:19.191Z,13.18
2022-11-29T09:16:25.274Z,12.00
2022-11-29T09:18:28.667Z,9.75
2022-11-29T09:20:30.045Z,10.30
2022-11-29T09:22:31.450Z,9.93
2022-11-29T09:24:34.081Z,10.90
2022-11-29T09:26:37.826Z,10.63
2022-11-29T09:28:39.295Z,10.60
2022-11-29T09:30:40.669Z,10.13
2022-11-29T09:32:42.042Z,10.15
2022-11-29T09:34:44.031Z,11.40
2022-11-29T09:36:45.665Z,11.52
2022-11-29T09:38:47.083Z,11.30
2022-11-29T09:40:53.638Z,10.10
2022-11-29T09:43:02.373Z,10.52
2022-11-29T09:45:20.461Z,10.77
2022-11-29T09:47:52.362Z,10.18
2022-11-29T09:50:25.524Z,12.10
2022-11-29T09:52:32.872Z,10.57
2022-11-29T09:54:54.397Z,11.73
2022-11-29T09:56:57.152Z,10.98
2022-11-29T09:59:11.780Z,10.90
2022-11-29T10:01:21.895Z,11.43
2022-11-29T10:03:29.236Z,9.25
2022-11-29T10:05:58.633Z,9.35
2022-11-29T10:08:13.719Z,10.13
2022-11-29T10:10:19.615Z,9.43
2022-11-29T10:12:39.495Z,10.32
2022-11-29T10:14:58.050Z,9.38
2022-11-29T10:17:19.467Z,9.43
2022-11-29T10:19:38.077Z,9.63
2022-11-29T10:21:43.644Z,9.10
2022-11-29T10:23:47.995Z,9.38
2022-11-29T10:25:53.041Z,9.60
2022-11-29T10:27:54.804Z,9.45
2022-11-29T10:29:59.134Z,9.35
2022-11-29T10:32:10.137Z,9.95
2022-11-29T10:34:24.014Z,10.10
2022-11-29T10:36:33.095Z,9.68
2022-11-29T10:38:34.708Z,9.05
2022-11-29T10:40:39.649Z,9.55
2022-11-29T10:42:50.269Z,10.55
2022-11-29T10:44:51.705Z,9.75
2022-11-29T10:46:54.334Z,9.25
2022-11-29T10:48:58.265Z,8.70
2022-11-29T10:51:01.423Z,9.10
2022-11-29T10:53:09.478Z,7.82
2022-11-29T10:55:14.650Z,9.05
2022-11-29T10:57:19.395Z,8.23
2022-11-29T10:59:26.722Z,8.70
2022-11-29T11:01:29.797Z,8.07
2022-11-29T11:03:36.398Z,8.52
2022-11-29T11:05:37.953Z,8.90
2022-11-29T11:07:39.471Z,8.27
2022-11-29T11:09:47.582Z,8.93
2022-11-29T11:11:55.621Z,8.73
2022-11-29T11:14:02.844Z,8.70
2022-11-29T11:16:24.372Z,8.20
2022-11-29T11:18:29.101Z,9.05
2022-11-29T11:20:33.307Z,8.18
2022-11-29T11:23:29.748Z,8.70
2022-11-29T11:25:38.889Z,7.93
2022-11-29T11:27:40.652Z,8.23
2022-11-29T11:29:44.514Z,8.30
2022-11-29T11:31:54.555Z,7.65
2022-11-29T11:33:55.935Z,8.63
2022-11-29T11:36:11.915Z,10.70
2022-11-29T11:38:17.744Z,10.65
2022-11-29T11:40:28.961Z,12.38
2022-11-29T11:42:38.650Z,11.93
2022-11-29T11:44:53.322Z,12.15
2022-11-29T11:46:55.123Z,11.77
2022-11-29T11:48:56.557Z,12.70
2022-11-29T11:51:00.897Z,11.32
2022-11-29T11:53:06.853Z,13.20
2022-11-29T11:55:26.640Z,12.32
2022-11-29T11:57:34.982Z,12.02
2022-11-29T11:59:36.783Z,12.30
2022-11-29T12:01:39.075Z,11.30
2022-11-29T12:03:57.512Z,11.80
2022-11-29T12:06:24.604Z,11.63
2022-11-29T12:08:28.571Z,12.18
2022-11-29T12:10:34.793Z,11.73
2022-11-29T12:12:41.159Z,11.77
2022-11-29T12:14:56.474Z,12.20
2022-11-29T12:17:49.060Z,9.77
2022-11-29T12:20:15.262Z,11.15
2022-11-29T12:22:23.394Z,10.68
2022-11-29T12:24:28.623Z,10.73
2022-11-29T12:26:57.088Z,10.40
2022-11-29T12:28:54.951Z,10.82
2022-11-29T12:31:14.685Z,10.38
2022-11-29T12:33:39.018Z,11.27
2022-11-29T12:36:02.109Z,10.15
2022-11-29T12:38:21.696Z,10.27
2022-11-29T12:40:29.196Z,10.80
2022-11-29T12:43:14.175Z,10.80
2022-11-29T12:45:20.844Z,10.35
2022-11-29T12:47:51.930Z,9.88
2022-11-29T12:50:25.829Z,10.30
2022-11-29T12:52:36.819Z,12.63
2022-11-29T12:54:38.303Z,13.20
2022-11-29T12:56:44.272Z,12.90
2022-11-29T12:59:13.148Z,14.05
2022-11-29T13:01:49.708Z,13.05
2022-11-29T13:04:13.945Z,12.93
2022-11-29T13:06:58.594Z,12.40
2022-11-29T13:12:01.136Z,12.43
2022-11-29T13:14:42.050Z,12.02
2022-11-29T13:16:49.441Z,12.07
2022-11-29T13:19:01.608Z,13.45
2022-11-29T13:21:14.920Z,12.30
2022-11-29T13:24:07.329Z,13.13
2022-11-29T13:26:09.409Z,13.10
2022-11-29T13:28:24.090Z,13.00
2022-11-29T13:30:26.260Z,12.70
2022-11-29T13:32:33.733Z,12.52
2022-11-29T13:34:41.625Z,12.23
2022-11-29T13:37:04.736Z,13.23
2022-11-29T13:39:29.195Z,12.75
2022-11-29T13:41:48.216Z,13.75
2022-11-29T13:43:59.792Z,13.40
2022-11-29T13:46:15.498Z,12.95
2022-11-29T13:48:28.943Z,12.82
2022-11-29T13:50:40.875Z,13.75
2022-11-29T13:52:44.816Z,13.40
2022-11-29T13:54:46.529Z,13.93
2022-11-29T13:56:48.228Z,14.65
2022-11-29T13:58:53.662Z,13.55
2022-11-29T14:01:01.328Z,13.30
2022-11-29T14:03:28.208Z,13.70
2022-11-29T14:05:29.653Z,13.98
2022-11-29T14:07:33.084Z,14.35
2022-11-29T14:09:57.792Z,15.25
2022-11-29T14:12:38.129Z,13.27
2022-11-29T14:15:10.724Z,14.02
2022-11-29T14:17:33.868Z,14.55
2022-11-29T14:19:36.950Z,14.77
2022-11-29T14:22:16.815Z,14.55
2022-11-29T14:24:35.209Z,14.52
2022-11-29T14:26:36.686Z,14.57
2022-11-29T14:28:39.585Z,15.57
2022-11-29T14:30:44.021Z,14.63
2022-11-29T14:33:04.165Z,16.00
2022-11-29T14:35:11.461Z,15.93
2022-11-29T14:37:28.102Z,16.33
2022-11-29T14:39:44.388Z,15.95
2022-11-29T14:41:51.413Z,16.58
2022-11-29T14:44:25.756Z,15.57
2022-11-29T14:46:31.236Z,15.93
2022-11-29T14:48:33.888Z,14.60
2022-11-29T14:50:42.091Z,17.40
2022-11-29T14:52:52.800Z,16.00
2022-11-29T14:54:57.470Z,18.25
2022-11-29T15:00:04.795Z,18.42
2022-11-29T15:02:17.539Z,19.00
2022-11-29T15:04:19.141Z,17.50
2022-11-29T15:06:26.728Z,17.83
2022-11-29T15:08:38.324Z,17.17
2022-11-29T15:10:44.475Z,18.23
2022-11-29T15:12:47.161Z,17.63
2022-11-29T15:15:07.869Z,17.27
2022-11-29T15:17:26.243Z,17.83
2022-11-29T15:19:57.654Z,17.73
2022-11-29T15:22:20.474Z,17.42
2022-11-29T15:24:26.781Z,18.20
2022-11-29T15:26:30.980Z,18.33
2022-11-29T15:28:32.454Z,17.80
2022-11-29T15:30:39.542Z,17.83
2022-11-29T15:32:43.387Z,16.67
2022-11-29T15:34:50.376Z,17.25
2022-11-29T15:36:52.030Z,16.30
2022-11-29T15:38:56.262Z,17.55
2022-11-29T15:40:58.416Z,16.98
2022-11-29T15:43:23.279Z,17.85
2022-11-29T15:45:39.116Z,16.85
2022-11-29T15:47:40.536Z,15.50
2022-11-29T15:49:42.016Z,17.80
2022-11-29T15:51:48.248Z,17.95
2022-11-29T15:54:11.346Z,16.42
2022-11-29T15:56:35.708Z,17.77
2022-11-29T15:58:37.387Z,17.73
2022-11-29T16:00:39.615Z,18.83
2022-11-29T16:02:50.222Z,17.20
2022-11-29T16:04:55.428Z,17.10
2022-11-29T16:06:57.699Z,17.88
2022-11-29T16:09:01.296Z,17.80
2022-11-29T16:11:02.794Z,17.25
2022-11-29T16:13:07.848Z,18.60
2022-11-29T16:15:33.624Z,16.73
2022-11-29T16:19:37.879Z,16.20
2022-11-29T16:21:39.934Z,16.52
2022-11-29T16:23:42.740Z,17.00
2022-11-29T16:26:00.900Z,16.80
2022-11-29T16:28:02.413Z,17.38
2022-11-29T16:30:14.954Z,16.45
2022-11-29T16:32:25.828Z,16.20
2022-11-29T16:34:31.161Z,16.27
2022-11-29T16:36:32.727Z,16.27
2022-11-29T16:38:34.218Z,15.80
2022-11-29T16:40:35.638Z,16.45
2022-11-29T16:42:37.173Z,16.83
2022-11-29T16:44:42.186Z,16.05
2022-11-29T16:46:43.678Z,17.67
2022-11-29T16:48:45.113Z,18.15
2022-11-29T16:51:16.068Z,16.30
2022-11-29T16:53:36.788Z,17.70
2022-11-29T16:55:38.150Z,17.55
2022-11-29T16:57:39.911Z,15.32
2022-11-29T16:59:41.414Z,17.42
2022-11-29T17:01:42.971Z,18.83
2022-11-29T17:03:44.465Z,26.10
2022-11-29T17:05:45.961Z,20.48
2022-11-29T17:07:48.139Z,27.77
2022-11-29T17:09:49.697Z,18.95
2022-11-29T17:11:55.874Z,24.88
2022-11-29T17:13:57.397Z,24.15
2022-11-29T17:16:02.283Z,20.52
2022-11-29T17:18:08.431Z,19.40
2022-11-29T17:20:17.024Z,19.73
2022-11-29T17:22:18.790Z,17.05
2022-11-29T17:24:23.948Z,17.02
2022-11-29T17:26:29.128Z,15.82
2022-11-29T17:28:38.159Z,14.27
2022-11-29T17:31:01.218Z,14.65
2022-11-29T17:34:10.008Z,14.75
2022-11-29T17:36:15.587Z,14.27
2022-11-29T17:38:26.166Z,13.80
2022-11-29T17:40:27.712Z,14.65
2022-11-29T17:42:29.539Z,15.15
2022-11-29T17:44:34.033Z,14.13
2022-11-29T17:46:40.044Z,14.95
2022-11-29T17:48:42.862Z,14.35
2022-11-29T17:50:44.391Z,14.82
2022-11-29T17:53:00.050Z,13.18
2022-11-29T17:59:32.871Z,13.05
2022-11-29T18:01:36.074Z,12.95
2022-11-29T18:03:40.196Z,12.27
2022-11-29T18:05:41.571Z,12.85
2022-11-29T18:07:57.629Z,13.68
2022-11-29T18:30:48.765Z,12.48
2022-11-29T18:32:50.232Z,12.05
2022-11-29T18:34:51.640Z,11.82
2022-11-29T18:36:53.019Z,12.23
2022-11-29T18:39:07.233Z,12.05
2022-11-29T18:41:09.533Z,13.35
2022-11-29T18:43:12.304Z,12.82
2022-11-29T18:45:13.753Z,14.50
2022-11-29T18:47:15.167Z,14.30
2022-11-29T18:49:18.156Z,13.80
2022-11-29T18:51:20.242Z,13.95
2022-11-29T18:53:21.705Z,13.73
2022-11-29T18:55:23.103Z,13.60
2022-11-29T18:57:24.485Z,14.77
2022-11-29T18:59:26.028Z,13.63
2022-11-29T19:01:31.066Z,13.10
2022-11-29T19:04:20.353Z,12.45
2022-11-29T19:06:25.319Z,12.52
2022-11-29T19:08:26.818Z,12.05
2022-11-29T19:10:28.454Z,11.93
2022-11-29T19:12:29.910Z,14.27
2022-11-29T19:14:32.299Z,13.40
2022-11-29T19:16:34.589Z,13.27
2022-11-29T19:18:36.032Z,13.55
2022-11-29T19:20:37.395Z,12.15
2022-11-29T19:22:38.802Z,14.13
2022-11-29T19:24:40.171Z,15.25
2022-11-29T19:26:46.811Z,14.23
2022-11-29T19:28:48.649Z,13.45
2022-11-29T19:42:30.488Z,12.88
2022-11-29T19:44:48.243Z,13.90
2022-11-29T19:46:57.040Z,13.93
2022-11-29T19:48:59.626Z,13.57
2022-11-29T19:51:01.069Z,14.05
2022-11-29T19:53:03.266Z,14.95
2022-11-29T19:55:04.943Z,14.73
2022-11-29T19:57:06.314Z,14.68
2022-11-29T19:59:08.394Z,13.38
2022-11-29T20:01:12.877Z,15.45
2022-11-29T20:03:14.676Z,14.52
2022-11-29T20:05:16.206Z,13.68
2022-11-29T20:07:17.611Z,14.77
2022-11-29T20:09:19.299Z,15.60
2022-11-29T20:11:22.932Z,14.05
2022-11-29T20:13:24.348Z,14.57
2022-11-29T20:15:25.801Z,14.60
2022-11-29T20:17:27.151Z,14.85
2022-11-29T20:19:28.731Z,15.75
2022-11-29T20:21:32.569Z,13.68
2022-11-29T20:23:34.685Z,15.90
2022-11-29T20:25:37.122Z,14.77
2022-11-29T20:27:39.359Z,16.40
2022-11-29T20:29:40.722Z,14.88
2022-11-29T20:31:50.217Z,15.55
2022-11-29T20:33:54.546Z,16.00
2022-11-29T20:36:15.921Z,15.20
2022-11-29T20:38:33.317Z,15.52
2022-11-29T20:40:58.230Z,17.95
2022-11-29T20:43:16.281Z,17.17
2022-11-29T20:45:18.566Z,18.70
2022-11-29T20:47:23.490Z,15.13
2022-11-29T20:49:25.158Z,17.48
2022-11-29T20:51:39.141Z,16.63
2022-11-29T20:53:42.825Z,18.77
2022-11-29T20:55:47.905Z,16.63
2022-11-29T20:57:49.881Z,18.58
2022-11-29T20:59:51.234Z,18.92
2022-11-29T21:01:52.697Z,19.52
2022-11-29T21:03:54.258Z,19.70
2022-11-29T21:05:57.197Z,18.65
2022-11-29T21:07:58.653Z,17.60
2022-11-29T21:10:01.712Z,17.85
2022-11-29T21:12:03.750Z,19.58
2022-11-29T21:14:07.909Z,17.52
2022-11-29T21:16:12.015Z,17.90
2022-11-29T21:18:25.386Z,18.15
2022-11-29T21:20:27.724Z,16.90
2022-11-29T21:22:48.275Z,17.73
2022-11-29T21:25:34.245Z,17.02
2022-11-29T21:27:35.979Z,15.90
2022-11-29T21:29:37.760Z,16.58
2022-11-29T21:31:39.536Z,17.15
2022-11-29T21:33:41.276Z,17.58
2022-11-29T21:35:42.754Z,18.45
2022-11-29T21:37:45.476Z,14.90
2022-11-29T21:39:48.888Z,16.35
2022-11-29T21:41:50.280Z,15.52
2022-11-29T21:44:06.219Z,16.33
2022-11-29T21:46:08.949Z,16.30
2022-11-29T21:48:30.502Z,16.77
2022-11-29T21:50:31.959Z,14.82
2022-11-29T21:52:33.429Z,16.08
2022-11-29T21:54:34.898Z,17.30
2022-11-29T21:56:36.301Z,18.55
2022-11-29T21:58:38.860Z,18.88
2022-11-29T22:00:40.262Z,17.90
2022-11-29T22:02:41.701Z,16.63
2022-11-29T22:04:43.248Z,17.13
2022-11-29T22:06:44.673Z,17.38
2022-11-29T22:08:47.227Z,17.98
2022-11-29T22:10:48.703Z,17.85
2022-11-29T22:12:52.452Z,17.98
2022-11-29T22:14:54.223Z,16.95
2022-11-29T22:16:58.008Z,17.05
2022-11-29T22:18:59.391Z,16.25
2022-11-29T22:21:07.088Z,18.42
2022-11-29T22:23:09.618Z,15.10
2022-11-29T22:25:11.048Z,16.88
2022-11-29T22:27:12.467Z,16.00
2022-11-29T22:29:14.786Z,16.13
2022-11-29T22:31:16.349Z,16.30
2022-11-29T22:33:17.781Z,16.50
2022-11-29T22:35:19.154Z,16.40
2022-11-29T22:37:20.537Z,17.15
2022-11-29T22:39:22.264Z,17.77
2022-11-29T22:41:23.669Z,19.15
2022-11-29T22:43:25.011Z,18.83
2022-11-29T22:45:26.588Z,20.00
2022-11-29T22:47:28.009Z,19.02
2022-11-29T22:49:29.944Z,18.75
2022-11-29T22:51:33.936Z,18.05
2022-11-29T22:53:36.720Z,17.45
2022-11-29T22:55:38.094Z,17.60
2022-11-29T22:57:39.473Z,17.33
2022-11-29T22:59:40.833Z,16.40
2022-11-29T23:01:42.533Z,18.25
2022-11-29T23:03:48.056Z,15.82
2022-11-29T23:05:49.436Z,18.50
2022-11-29T23:07:54.888Z,17.25
2022-11-29T23:09:56.370Z,17.45
2022-11-29T23:11:57.797Z,17.60
2022-11-29T23:13:59.138Z,16.85
2022-11-29T23:16:01.433Z,18.15
2022-11-29T23:18:02.948Z,18.02
2022-11-29T23:20:04.980Z,19.13
2022-11-29T23:22:06.389Z,18.13
2022-11-29T23:24:07.945Z,17.67
2022-11-29T23:26:17.517Z,17.13
2022-11-29T23:28:18.932Z,16.95
2022-11-29T23:30:20.327Z,16.45
2022-11-29T23:32:21.715Z,16.60
2022-11-29T23:34:23.183Z,18.80
2022-11-29T23:36:24.677Z,18.15
2022-11-29T23:38:26.170Z,17.20
2022-11-29T23:40:27.613Z,16.88
2022-11-29T23:42:29.018Z,19.02
2022-11-29T23:44:30.447Z,18.05
2022-11-29T23:46:31.983Z,18.45
2022-11-29T23:48:33.399Z,16.65
2022-11-29T23:50:34.967Z,17.77
2022-11-29T23:52:36.545Z,16.98
2022-11-29T23:54:37.943Z,16.20
2022-11-29T23:56:39.326Z,17.98
2022-11-29T23:58:41.302Z,17.63
